.
WxDataArchive / Data Records for 2009-09-19
2009-09-18 September 2009 2009-09-20

Data Records for Saturday, 19 September 2009

Time	Temp	Chill	HIndex	Humid	Dewpt	 Wind 	HiWind	WindDir	Rain 	Barom 
-----	----	-----	------	-----	-----	------	------	-------	-----	----- 
00:00	62.9	62.9	62.9	81	57.0	2	4	90	0.00	30.214 
00:05	62.6	62.6	62.6	82	57.0	2	5	68	0.00	30.214 
00:10	62.4	62.4	62.4	82	56.8	2	6	90	0.00	30.214 
00:15	62.1	62.1	62.1	83	56.9	1	6	90	0.00	30.222 
00:20	62.0	62.0	62.0	84	57.1	1	3	90	0.00	30.222 
00:25	61.6	61.6	61.6	84	56.7	1	4	90	0.00	30.222 
00:30	61.5	61.5	61.5	85	56.9	1	3	112	0.00	30.225 
00:35	61.3	61.3	61.3	85	56.7	1	3	112	0.00	30.225 
00:40	61.2	61.2	61.2	86	57.0	1	3	112	0.00	30.225 
00:45	61.2	61.2	61.2	86	57.0	1	4	112	0.00	30.226 
00:50	61.0	61.0	61.0	87	57.1	1	4	90	0.00	30.226 
00:55	60.9	60.9	60.9	87	57.0	1	3	90	0.00	30.226 
01:00	60.9	60.9	60.9	87	57.0	0	3	90	0.00	30.228 
01:05	60.7	60.7	60.7	87	56.8	1	3	90	0.00	30.228 
01:10	60.5	60.5	60.5	87	56.6	1	2	90	0.00	30.228 
01:15	60.5	60.5	60.5	88	56.9	0	3	90	0.00	30.226 
01:20	60.4	60.4	60.4	88	56.8	0	2	90	0.00	30.226 
01:25	60.1	60.1	60.1	88	56.5	0	2	90	0.00	30.226 
01:30	60.1	60.1	60.1	88	56.5	1	6	90	0.00	30.229 
01:35	59.9	59.9	59.9	89	56.6	1	3	90	0.00	30.229 
01:40	59.8	59.8	59.8	88	56.2	0	2	90	0.00	30.229 
01:45	59.6	59.6	59.6	89	56.4	0	2	90	0.00	30.235 
01:50	59.3	59.3	59.3	89	56.1	0	2	90	0.00	30.235 
01:55	59.2	59.2	59.2	89	56.0	0	3	90	0.00	30.235 
02:00	59.0	59.0	59.0	90	56.1	0	2	45	0.00	30.236 
02:05	59.0	59.0	59.0	90	56.1	0	2	45	0.00	30.236 
02:10	58.9	58.9	58.9	90	56.0	0	2	45	0.00	30.236 
02:15	58.7	58.7	58.7	90	55.8	0	3	45	0.00	30.240 
02:20	58.6	58.6	58.6	90	55.7	1	3	45	0.00	30.240 
02:25	58.4	58.4	58.4	90	55.5	1	3	90	0.00	30.240 
02:30	58.3	58.3	58.3	90	55.4	0	2	90	0.00	30.241 
02:35	58.3	58.3	58.3	90	55.4	0	3	90	0.00	30.241 
02:40	58.1	58.1	58.1	91	55.5	1	3	90	0.00	30.241 
02:45	58.0	58.0	58.0	91	55.4	1	3	90	0.00	30.241 
02:50	58.0	58.0	58.0	91	55.4	0	1	90	0.00	30.241 
02:55	57.8	57.8	57.8	91	55.2	0	1	90	0.00	30.241 
03:00	57.6	57.6	57.6	91	55.0	0	1	90	0.00	30.243 
03:05	57.6	57.6	57.6	91	55.0	0	2	90	0.00	30.243 
03:10	57.5	57.5	57.5	91	54.9	0	1	90	0.00	30.243 
03:15	57.3	57.3	57.3	91	54.7	0	1	90	0.00	30.246 
03:20	57.2	57.2	57.2	91	54.6	0	0	---	0.00	30.246 
03:25	57.0	57.0	57.0	91	54.4	0	2	90	0.00	30.246 
03:30	56.9	56.9	56.9	91	54.3	0	0	---	0.00	30.246 
03:35	56.9	56.9	56.9	91	54.3	0	0	---	0.00	30.246 
03:40	56.7	56.7	56.7	91	54.1	0	0	---	0.00	30.246 
03:45	56.7	56.7	56.7	91	54.1	0	2	90	0.00	30.245 
03:50	56.7	56.7	56.7	91	54.1	0	3	90	0.00	30.245 
03:55	56.7	56.7	56.7	91	54.1	1	4	90	0.00	30.245 
04:00	56.7	56.7	56.7	91	54.1	1	2	90	0.00	30.245 
04:05	56.9	56.9	56.9	91	54.3	0	3	90	0.00	30.245 
04:10	56.9	56.9	56.9	90	54.0	1	2	90	0.00	30.245 
04:15	56.7	56.7	56.7	90	53.8	0	1	90	0.00	30.246 
04:20	56.7	56.7	56.7	91	54.1	0	2	90	0.00	30.246 
04:25	56.6	56.6	56.6	91	54.0	0	1	90	0.00	30.246 
04:30	56.6	56.6	56.6	91	54.0	0	1	90	0.00	30.246 
04:35	56.5	56.5	56.5	91	53.9	0	1	90	0.00	30.246 
04:40	56.2	56.2	56.2	91	53.6	0	0	---	0.00	30.246 
04:45	56.0	56.0	56.0	91	53.4	0	0	---	0.00	30.252 
04:50	55.7	55.7	55.7	91	53.1	0	0	---	0.00	30.252 
04:55	55.6	55.6	55.6	91	53.0	0	0	---	0.00	30.252 
05:00	55.4	55.4	55.4	92	53.1	0	0	---	0.00	30.255 
05:05	55.3	55.3	55.3	92	53.0	0	0	---	0.00	30.255 
05:10	55.0	55.0	55.0	92	52.7	0	0	---	0.00	30.255 
05:15	54.8	54.8	54.8	92	52.5	0	0	---	0.00	30.261 
05:20	55.0	55.0	55.0	93	53.0	0	1	90	0.00	30.261 
05:25	55.0	55.0	55.0	93	53.0	0	2	90	0.00	30.261 
05:30	55.0	55.0	55.0	93	53.0	0	1	90	0.00	30.264 
05:35	54.8	54.8	54.8	93	52.8	0	1	90	0.00	30.264 
05:40	54.8	54.8	54.8	93	52.8	0	1	90	0.00	30.264 
05:45	54.8	54.8	54.8	94	53.1	0	2	90	0.00	30.264 
05:50	54.8	54.8	54.8	94	53.1	0	1	90	0.00	30.264 
05:55	54.7	54.7	54.7	94	53.0	0	2	90	0.00	30.264 
06:00	54.7	54.7	54.7	94	53.0	0	2	90	0.00	30.263 
06:05	54.7	54.7	54.7	94	53.0	0	1	90	0.00	30.263 
06:10	54.5	54.5	54.5	94	52.8	0	2	90	0.00	30.263 
06:15	54.4	54.4	54.4	94	52.7	0	3	90	0.00	30.265 
06:20	54.4	54.4	54.4	94	52.7	0	1	90	0.00	30.265 
06:25	54.2	54.2	54.2	94	52.5	0	1	90	0.00	30.265 
06:30	54.1	54.1	54.1	94	52.4	0	2	90	0.00	30.267 
06:35	53.8	53.8	53.8	94	52.1	0	1	90	0.00	30.267 
06:40	53.6	53.6	53.6	94	51.9	0	1	90	0.00	30.267 
06:45	53.3	53.3	53.3	94	51.6	0	1	90	0.00	30.267 
06:50	53.2	53.2	53.2	94	51.5	0	2	90	0.00	30.267 
06:55	52.9	52.9	52.9	94	51.2	1	4	90	0.00	30.267 
07:00	52.6	52.6	52.6	94	50.9	1	2	112	0.00	30.267 
07:05	52.5	52.5	52.5	94	50.8	0	2	112	0.00	30.267 
07:10	52.3	52.3	52.3	94	50.6	1	4	112	0.00	30.267 
07:15	52.2	52.2	52.2	94	50.5	0	2	112	0.00	30.272 
07:20	52.0	52.0	52.0	94	50.3	1	3	112	0.00	30.272 
07:25	51.9	51.9	51.9	93	49.9	2	5	90	0.00	30.272 
07:30	51.7	51.7	51.7	93	49.7	0	3	112	0.00	30.274 
07:35	51.7	51.7	51.7	93	49.7	0	2	45	0.00	30.274 
07:40	51.6	51.6	51.6	93	49.6	1	4	45	0.00	30.274 
07:45	51.6	51.6	51.6	93	49.6	1	4	112	0.00	30.283 
07:50	51.6	51.6	51.6	93	49.6	0	3	135	0.00	30.283 
07:55	51.6	51.6	51.6	92	49.4	1	3	135	0.00	30.283 
08:00	51.6	51.6	51.6	92	49.4	0	3	68	0.00	30.285 
08:05	51.6	51.6	51.6	92	49.4	1	3	68	0.00	30.285 
08:10	51.6	51.6	51.6	92	49.4	1	3	90	0.00	30.285 
08:15	51.6	51.6	51.6	91	49.1	0	1	90	0.00	30.288 
08:20	51.9	51.9	51.9	91	49.4	0	3	90	0.00	30.288 
08:25	52.2	52.2	52.2	90	49.4	0	2	90	0.00	30.288 
08:30	52.3	52.3	52.3	88	48.9	2	4	112	0.00	30.288 
08:35	52.5	52.5	52.5	88	49.0	1	4	112	0.00	30.288 
08:40	52.8	52.8	52.8	87	49.0	1	4	112	0.00	30.288 
08:45	52.9	52.9	52.9	87	49.1	0	2	112	0.00	30.287 
08:50	53.2	53.2	53.2	87	49.4	0	1	112	0.00	30.287 
08:55	53.3	53.3	53.3	86	49.2	1	7	112	0.00	30.287 
09:00	53.8	53.8	53.8	86	49.7	1	3	112	0.00	30.286 
09:05	53.9	53.9	53.9	84	49.2	3	7	90	0.00	30.286 
09:10	54.2	54.2	54.2	84	49.5	2	6	90	0.00	30.286 
09:15	54.5	54.5	54.5	84	49.8	2	6	90	0.00	30.289 
09:20	54.8	54.8	54.8	84	50.1	1	6	90	0.00	30.289 
09:25	55.0	55.0	55.0	82	49.6	2	5	112	0.00	30.289 
09:30	55.1	55.1	55.1	82	49.7	2	4	90	0.00	30.291 
09:35	55.4	55.4	55.4	82	50.0	2	7	90	0.00	30.291 
09:40	55.7	55.7	55.7	81	50.0	2	5	90	0.00	30.291 
09:45	56.0	56.0	56.0	81	50.3	2	5	112	0.00	30.298 
09:50	56.5	56.5	56.5	80	50.4	2	3	90	0.00	30.298 
09:55	57.0	57.0	57.0	80	50.9	2	4	90	0.00	30.298 
10:00	57.6	57.6	57.6	78	50.8	2	7	90	0.00	30.302 
10:05	58.0	58.0	58.0	77	50.8	3	6	90	0.00	30.302 
10:10	58.4	58.4	58.4	77	51.2	3	6	90	0.00	30.302 
10:15	58.9	58.9	58.9	77	51.7	1	5	90	0.00	30.302 
10:20	59.6	59.6	59.6	75	51.7	2	4	112	0.00	30.302 
10:25	59.9	59.9	59.9	75	52.0	2	6	90	0.00	30.302 
10:30	60.4	60.4	60.4	74	52.1	1	4	112	0.00	30.303 
10:35	61.0	61.0	61.0	73	52.3	1	5	112	0.00	30.303 
10:40	61.3	61.3	61.3	70	51.4	2	5	112	0.00	30.303 
10:45	61.8	61.8	61.8	71	52.3	1	3	90	0.00	30.302 
10:50	62.4	62.4	62.4	71	52.9	1	3	112	0.00	30.302 
10:55	63.1	63.1	63.1	69	52.8	1	4	112	0.00	30.302 
11:00	63.2	63.2	63.2	68	52.5	2	5	90	0.00	30.304 
11:05	63.5	63.5	63.5	69	53.1	1	3	90	0.00	30.304 
11:10	64.0	64.0	64.0	68	53.2	2	4	90	0.00	30.304 
11:15	64.0	64.0	64.0	68	53.2	2	6	90	0.00	30.301 
11:20	63.7	63.7	63.7	67	52.5	3	6	112	0.00	30.301 
11:25	63.5	63.5	63.5	68	52.7	2	5	68	0.00	30.301 
11:30	64.2	64.2	64.2	67	53.0	2	5	90	0.00	30.299 
11:35	64.8	64.8	64.8	66	53.2	1	4	90	0.00	30.299 
11:40	65.5	65.5	65.5	62	52.1	2	6	135	0.00	30.299 
11:45	66.1	66.1	66.1	60	51.8	1	6	90	0.00	30.299 
11:50	66.4	66.4	66.4	60	52.1	2	5	90	0.00	30.299 
11:55	66.3	66.3	66.3	58	51.1	2	7	90	0.00	30.299 
12:00	65.8	65.8	65.8	59	51.1	3	6	90	0.00	30.299 
12:05	66.1	66.1	66.1	58	50.9	2	4	135	0.00	30.299 
12:10	66.6	66.6	66.6	59	51.8	2	5	112	0.00	30.299 
12:15	66.6	66.6	66.6	55	49.9	3	6	90	0.00	30.296 
12:20	66.9	66.9	66.9	57	51.2	2	6	112	0.00	30.296 
12:25	67.6	67.6	67.6	56	51.3	1	4	112	0.00	30.296 
12:30	68.1	68.1	68.1	53	50.3	1	4	68	0.00	30.297 
12:35	67.9	67.9	67.9	54	50.6	2	6	90	0.00	30.297 
12:40	68.1	68.1	68.1	54	50.8	2	6	90	0.00	30.297 
12:45	68.3	68.3	68.3	55	51.5	1	4	112	0.00	30.295 
12:50	68.4	68.4	68.4	54	51.1	2	5	90	0.00	30.295 
12:55	68.3	68.3	68.3	55	51.5	3	5	90	0.00	30.295 
13:00	68.1	68.1	68.1	57	52.3	2	7	90	0.00	30.288 
13:05	68.3	68.3	68.3	52	50.0	3	7	90	0.00	30.288 
13:10	68.4	68.4	68.4	49	48.5	3	7	90	0.00	30.288 
13:15	68.6	68.6	68.6	51	49.7	2	6	90	0.00	30.283 
13:20	69.1	69.1	69.1	49	49.1	1	6	90	0.00	30.283 
13:25	69.3	69.3	69.3	46	47.6	2	6	90	0.00	30.283 
13:30	69.4	69.4	69.4	44	46.5	2	7	90	0.00	30.279 
13:35	69.8	69.8	69.8	45	47.5	2	5	90	0.00	30.279 
13:40	70.3	70.3	70.3	42	46.1	1	4	112	0.00	30.279 
13:45	70.4	70.4	70.4	42	46.2	1	9	112	0.00	30.276 
13:50	70.3	70.3	70.3	38	43.5	3	8	112	0.00	30.276 
13:55	70.6	70.6	70.6	40	45.1	1	4	112	0.00	30.276 
14:00	70.8	70.8	70.8	41	45.9	2	4	112	0.00	30.264 
14:05	70.9	70.9	70.9	44	47.9	2	6	90	0.00	30.264 
14:10	70.8	70.8	70.8	43	47.2	2	7	112	0.00	30.264 
14:15	70.4	70.4	70.4	40	44.9	3	9	90	0.00	30.262 
14:20	70.4	70.4	70.4	39	44.2	2	5	112	0.00	30.262 
14:25	70.4	70.4	70.4	38	43.6	3	10	90	0.00	30.262 
14:30	70.4	70.4	70.4	41	45.6	2	6	90	0.00	30.253 
14:35	70.6	70.6	70.6	37	43.1	3	6	112	0.00	30.253 
14:40	70.6	70.6	70.6	33	40.1	3	5	90	0.00	30.253 
14:45	70.9	70.9	70.9	38	44.0	2	5	90	0.00	30.248 
14:50	71.1	71.1	71.1	39	44.9	2	4	112	0.00	30.248 
14:55	70.9	70.9	70.9	40	45.4	2	5	90	0.00	30.248 
15:00	71.3	71.3	71.3	41	46.4	2	7	90	0.00	30.238 
15:05	71.3	71.3	71.3	38	44.4	3	9	90	0.00	30.238 
15:10	70.9	70.9	70.9	39	44.7	2	6	112	0.00	30.238 
15:15	70.6	70.6	70.6	39	44.4	2	6	90	0.00	30.233 
15:20	70.6	70.6	70.6	38	43.7	2	5	90	0.00	30.233 
15:25	70.8	70.8	70.8	40	45.3	1	4	112	0.00	30.233 
15:30	70.9	70.9	70.9	42	46.6	1	4	90	0.00	30.227 
15:35	71.5	71.5	71.5	39	45.2	2	6	90	0.00	30.227 
15:40	72.0	72.0	72.0	38	45.0	2	4	90	0.00	30.227 
15:45	72.1	72.1	72.1	38	45.1	2	6	112	0.00	30.223 
15:50	71.8	71.8	71.8	38	44.8	3	6	90	0.00	30.223 
15:55	72.0	72.0	72.0	42	47.6	2	7	90	0.00	30.223 
16:00	71.6	71.6	71.6	37	43.9	3	6	90	0.00	30.220 
16:05	71.6	71.6	71.6	41	46.6	2	6	90	0.00	30.220 
16:10	72.0	72.0	72.0	43	48.3	2	5	90	0.00	30.220 
16:15	72.3	72.3	72.3	37	44.6	2	10	112	0.00	30.220 
16:20	72.3	72.3	72.3	38	45.3	2	7	90	0.00	30.220 
16:25	72.1	72.1	72.1	40	46.4	2	6	112	0.00	30.220 
16:30	72.0	72.0	72.0	39	45.7	2	5	90	0.00	30.220 
16:35	72.0	72.0	72.0	39	45.7	3	8	90	0.00	30.220 
16:40	71.8	71.8	71.8	40	46.2	1	3	112	0.00	30.220 
16:45	71.8	71.8	71.8	38	44.8	2	5	112	0.00	30.218 
16:50	71.5	71.5	71.5	37	43.8	2	6	112	0.00	30.218 
16:55	71.3	71.3	71.3	39	45.1	2	6	112	0.00	30.218 
17:00	71.3	71.3	71.3	40	45.7	1	4	112	0.00	30.211 
17:05	71.1	71.1	71.1	40	45.5	1	5	112	0.00	30.211 
17:10	70.9	70.9	70.9	41	46.0	1	4	112	0.00	30.211 
17:15	70.6	70.6	70.6	40	45.1	1	5	90	0.00	30.207 
17:20	70.4	70.4	70.4	43	46.8	2	6	90	0.00	30.207 
17:25	70.4	70.4	70.4	40	44.9	1	4	90	0.00	30.207 
17:30	70.4	70.4	70.4	40	44.9	1	5	112	0.00	30.208 
17:35	70.6	70.6	70.6	38	43.7	2	5	90	0.00	30.208 
17:40	70.8	70.8	70.8	39	44.6	1	3	90	0.00	30.208 
17:45	70.9	70.9	70.9	40	45.4	1	3	90	0.00	30.207 
17:50	71.1	71.1	71.1	44	48.1	1	3	135	0.00	30.207 
17:55	71.1	71.1	71.1	42	46.8	1	3	135	0.00	30.207 
18:00	70.9	70.9	70.9	43	47.3	0	2	90	0.00	30.208 
18:05	70.9	70.9	70.9	45	48.5	0	1	90	0.00	30.208 
18:10	70.8	70.8	70.8	43	47.2	1	4	90	0.00	30.208 
18:15	70.6	70.6	70.6	43	47.0	1	4	112	0.00	30.209 
18:20	70.4	70.4	70.4	45	48.0	0	3	112	0.00	30.209 
18:25	70.1	70.1	70.1	43	46.6	1	3	112	0.00	30.209 
18:30	69.8	69.8	69.8	44	46.9	1	5	112	0.00	30.209 
18:35	69.4	69.4	69.4	45	47.1	1	3	112	0.00	30.209 
18:40	69.1	69.1	69.1	45	46.9	0	1	112	0.00	30.209 
18:45	68.8	68.8	68.8	48	48.3	0	0	---	0.00	30.208 
18:50	68.4	68.4	68.4	47	47.4	0	1	112	0.00	30.208 
18:55	68.1	68.1	68.1	49	48.2	0	1	112	0.00	30.208 
19:00	67.8	67.8	67.8	50	48.5	0	0	---	0.00	30.209 
19:05	67.4	67.4	67.4	50	48.1	0	1	112	0.00	30.209 
19:10	67.3	67.3	67.3	50	48.0	0	1	112	0.00	30.209 
19:15	67.1	67.1	67.1	52	48.9	0	1	112	0.00	30.209 
19:20	66.8	66.8	66.8	52	48.6	0	2	112	0.00	30.209 
19:25	66.4	66.4	66.4	51	47.7	0	1	112	0.00	30.209 
19:30	66.3	66.3	66.3	52	48.1	0	1	112	0.00	30.208 
19:35	66.0	66.0	66.0	53	48.4	0	1	112	0.00	30.208 
19:40	65.8	65.8	65.8	54	48.7	0	1	112	0.00	30.208 
19:45	65.5	65.5	65.5	54	48.4	0	0	---	0.00	30.206 
19:50	65.2	65.2	65.2	56	49.1	0	2	112	0.00	30.206 
19:55	64.8	64.8	64.8	56	48.7	0	1	112	0.00	30.206 
20:00	64.5	64.5	64.5	57	48.9	0	2	112	0.00	30.210 
20:05	64.3	64.3	64.3	58	49.2	0	2	112	0.00	30.210 
20:10	64.2	64.2	64.2	59	49.6	1	3	112	0.00	30.210 
20:15	63.9	63.9	63.9	61	50.2	0	2	112	0.00	30.207 
20:20	63.7	63.7	63.7	62	50.4	0	1	112	0.00	30.207 
20:25	63.4	63.4	63.4	63	50.6	1	4	68	0.00	30.207 
20:30	63.1	63.1	63.1	63	50.3	2	4	68	0.00	30.209 
20:35	62.7	62.7	62.7	63	49.9	1	3	112	0.00	30.209 
20:40	62.6	62.6	62.6	64	50.2	1	6	112	0.00	30.209 
20:45	62.3	62.3	62.3	64	50.0	2	4	68	0.00	30.212 
20:50	62.0	62.0	62.0	65	50.1	1	4	112	0.00	30.212 
20:55	61.6	61.6	61.6	65	49.7	2	4	112	0.00	30.212 
21:00	61.5	61.5	61.5	65	49.6	1	6	112	0.00	30.221 
21:05	61.2	61.2	61.2	65	49.3	1	4	112	0.00	30.221 
21:10	60.9	60.9	60.9	66	49.5	1	4	112	0.00	30.221 
21:15	60.5	60.5	60.5	67	49.5	1	3	90	0.00	30.223 
21:20	60.4	60.4	60.4	68	49.8	0	2	90	0.00	30.223 
21:25	59.9	59.9	59.9	68	49.3	1	4	90	0.00	30.223 
21:30	59.8	59.8	59.8	68	49.2	1	3	90	0.00	30.227 
21:35	59.5	59.5	59.5	69	49.3	1	3	112	0.00	30.227 
21:40	59.2	59.2	59.2	69	49.0	1	5	112	0.00	30.227 
21:45	59.0	59.0	59.0	69	48.8	0	2	112	0.00	30.229 
21:50	58.7	58.7	58.7	70	48.9	1	3	112	0.00	30.229 
21:55	58.4	58.4	58.4	70	48.7	1	2	112	0.00	30.229 
22:00	58.3	58.3	58.3	70	48.6	1	4	90	0.00	30.230 
22:05	58.0	58.0	58.0	70	48.3	1	3	90	0.00	30.230 
22:10	57.8	57.8	57.8	71	48.5	1	3	135	0.00	30.230 
22:15	57.5	57.5	57.5	71	48.2	0	2	112	0.00	30.227 
22:20	57.3	57.3	57.3	72	48.3	0	2	112	0.00	30.227 
22:25	57.0	57.0	57.0	72	48.1	1	3	112	0.00	30.227 
22:30	56.7	56.7	56.7	73	48.1	0	2	112	0.00	30.231 
22:35	56.6	56.6	56.6	73	48.0	1	3	112	0.00	30.231 
22:40	56.3	56.3	56.3	74	48.1	1	2	112	0.00	30.231 
22:45	56.0	56.0	56.0	74	47.8	0	2	112	0.00	30.230 
22:50	55.9	55.9	55.9	75	48.1	0	2	112	0.00	30.230 
22:55	55.6	55.6	55.6	75	47.8	0	1	112	0.00	30.230 
23:00	55.4	55.4	55.4	75	47.6	0	2	112	0.00	30.229 
23:05	55.3	55.3	55.3	76	47.9	0	5	112	0.00	30.229 
23:10	55.1	55.1	55.1	77	48.0	0	2	112	0.00	30.229 
23:15	55.0	55.0	55.0	77	47.9	0	2	112	0.00	30.227 
23:20	55.0	55.0	55.0	77	47.9	0	3	112	0.00	30.227 
23:25	54.8	54.8	54.8	78	48.1	0	2	112	0.00	30.227 
23:30	54.7	54.7	54.7	78	48.0	0	1	112	0.00	30.230 
23:35	54.5	54.5	54.5	78	47.8	0	1	112	0.00	30.230 
23:40	54.2	54.2	54.2	79	47.8	0	1	112	0.00	30.230 
23:45	54.1	54.1	54.1	80	48.1	0	2	112	0.00	30.231 
23:50	53.9	53.9	53.9	80	47.9	0	2	112	0.00	30.231 
23:55	53.9	53.9	53.9	80	47.9	1	3	112	0.00	30.231 

CoCoRaHS
IN-AL-39
A2 Web Hosting
Creative Commons License
GoDaddy
search engine by freefind advanced

loaded 2018-11-15 18:58:05 • last modified 2010-11-18 10:43:29
Privacy PolicyDisclaimer
• wx.awcolley.com is powered by PmWiki v.2002016 •
• all content (unless otherwise noted) © 2018 A W Colley